Time;durP1;ratioP1;P1;durP2;ratioP2;P2;SDS_P1;SDS_P2;PMS_P1;PMS_P2;Temp;Humidity;BMP_temperature;BMP_pressure;BME280_temperature;BME280_humidity;BME280_pressure;Samples;Min_cycle;Max_cycle;Signal;HPM_P1;HPM_P2
2022/08/27 00:02:16;;;;;;;3.05;0.98;;;26.50;96.70;;;;;;5042144;28;20448;-81
2022/08/27 00:04:45;;;;;;;4.95;1.30;;;26.50;96.70;;;;;;5054356;28;20100;-81
2022/08/27 00:07:13;;;;;;;3.58;1.30;;;26.40;96.70;;;;;;5054986;28;20044;-80
2022/08/27 00:09:42;;;;;;;3.90;1.27;;;26.30;96.70;;;;;;5052957;28;20424;-79
2022/08/27 00:12:10;;;;;;;2.15;1.20;;;26.40;96.70;;;;;;5041444;28;20052;-80
2022/08/27 00:14:39;;;;;;;2.67;1.05;;;26.40;96.70;;;;;;5037272;28;20041;-80
2022/08/27 00:17:08;;;;;;;1.75;1.00;;;26.50;96.70;;;;;;5020581;28;20048;-79
2022/08/27 00:19:36;;;;;;;3.13;1.10;;;26.60;96.70;;;;;;5035988;28;20049;-80
2022/08/27 00:22:06;;;;;;;2.58;1.10;;;26.70;96.70;;;;;;5040677;28;20044;-79
2022/08/27 00:24:34;;;;;;;2.90;1.50;;;26.70;96.70;;;;;;5044551;28;20062;-80
2022/08/27 00:27:05;;;;;;;2.65;1.50;;;26.70;96.70;;;;;;5060532;28;20041;-80
2022/08/27 00:29:33;;;;;;;2.40;1.42;;;26.70;96.70;;;;;;5033096;28;20041;-80
2022/08/27 00:32:02;;;;;;;1.95;1.52;;;26.60;96.70;;;;;;5060409;28;20083;-80
2022/08/27 00:34:31;;;;;;;3.60;1.65;;;26.50;96.70;;;;;;5039983;28;20044;-79
2022/08/27 00:36:59;;;;;;;2.75;1.70;;;26.50;96.70;;;;;;5052899;28;20047;-79
2022/08/27 00:39:27;;;;;;;2.03;1.70;;;26.50;96.70;;;;;;5059679;28;20054;-80
2022/08/27 00:41:55;;;;;;;2.20;1.73;;;26.50;96.70;;;;;;5030423;28;20584;-80
2022/08/27 00:44:23;;;;;;;3.88;1.65;;;26.60;96.70;;;;;;5038838;28;20037;-80
2022/08/27 00:46:55;;;;;;;4.50;2.15;;;26.50;96.70;;;;;;5064360;28;20042;-80
2022/08/27 00:49:28;;;;;;;3.08;1.85;;;26.50;96.70;;;;;;5043356;28;20074;-79
2022/08/27 00:52:07;;;;;;;3.25;1.40;;;26.20;96.70;;;;;;5055522;28;20048;-80
2022/08/27 00:54:35;;;;;;;2.00;1.20;;;26.30;96.70;;;;;;5061397;28;20041;-79
2022/08/27 00:57:04;;;;;;;1.77;1.30;;;26.30;96.70;;;;;;5022787;28;20045;-79
2022/08/27 00:59:32;;;;;;;2.80;1.15;;;26.30;96.70;;;;;;5048976;28;20044;-80
2022/08/27 01:02:19;;;;;;;2.55;1.08;;;26.30;96.70;;;;;;5064448;28;20047;-80
2022/08/27 01:04:50;;;;;;;6.65;1.33;;;26.30;96.70;;;;;;5061726;28;20078;-79
2022/08/27 01:07:21;;;;;;;1.13;1.00;;;26.00;96.70;;;;;;5044062;28;20139;-80
2022/08/27 01:09:51;;;;;;;2.33;1.10;;;26.10;96.70;;;;;;5064237;28;20544;-81
2022/08/27 01:12:19;;;;;;;2.88;0.75;;;26.20;96.70;;;;;;5042131;28;20044;-81
2022/08/27 01:14:48;;;;;;;2.10;1.10;;;26.20;96.70;;;;;;5057087;28;20490;-79
2022/08/27 01:17:16;;;;;;;1.95;1.10;;;26.10;96.70;;;;;;5054385;28;20045;-79
2022/08/27 01:19:49;;;;;;;3.38;0.98;;;26.00;96.70;;;;;;5069976;28;20395;-80
2022/08/27 01:22:31;;;;;;;2.65;0.98;;;26.00;96.70;;;;;;5039081;28;20562;-77
2022/08/27 01:25:07;;;;;;;2.60;0.82;;;25.70;96.70;;;;;;5025068;28;20063;-77
2022/08/27 01:27:35;;;;;;;4.43;0.95;;;25.70;96.70;;;;;;5028371;28;20738;-80
2022/08/27 01:30:05;;;;;;;2.38;1.17;;;25.70;96.70;;;;;;5043009;28;20048;-80
2022/08/27 01:32:35;;;;;;;3.13;1.00;;;25.80;96.70;;;;;;5034960;28;20045;-81
2022/08/27 01:35:05;;;;;;;3.88;1.08;;;25.90;96.70;;;;;;5063424;28;20074;-80
2022/08/27 01:37:34;;;;;;;3.08;0.90;;;25.70;96.70;;;;;;5074053;28;20049;-80
2022/08/27 01:40:04;;;;;;;3.08;1.00;;;25.80;96.70;;;;;;5048174;28;20048;-80
2022/08/27 01:42:35;;;;;;;3.58;0.98;;;25.80;96.70;;;;;;5058756;28;20483;-80
2022/08/27 01:45:06;;;;;;;1.67;0.82;;;25.80;96.70;;;;;;5054331;28;20040;-79
2022/08/27 01:47:36;;;;;;;1.35;0.85;;;25.80;96.70;;;;;;5045076;28;20052;-80
2022/08/27 01:50:07;;;;;;;2.30;0.90;;;25.70;96.70;;;;;;5036745;28;20049;-81
2022/08/27 01:52:35;;;;;;;1.80;0.80;;;25.80;96.70;;;;;;5023596;28;20072;-80
2022/08/27 01:55:08;;;;;;;1.65;1.00;;;25.80;96.70;;;;;;5056445;28;20511;-81
2022/08/27 01:57:37;;;;;;;1.15;0.90;;;25.70;96.70;;;;;;5054159;28;20122;-80
2022/08/27 02:00:10;;;;;;;2.00;0.90;;;25.70;96.70;;;;;;5027099;28;20049;-80
2022/08/27 02:02:39;;;;;;;2.20;0.82;;;25.50;96.70;;;;;;5053319;28;20140;-80
2022/08/27 02:05:09;;;;;;;2.25;0.88;;;25.50;96.70;;;;;;5032735;28;20077;-80
2022/08/27 02:07:38;;;;;;;10.60;1.27;;;25.40;96.70;;;;;;5018037;28;20496;-80
2022/08/27 02:10:10;;;;;;;3.30;1.10;;;25.30;96.70;;;;;;5015657;28;20116;-80
2022/08/27 02:12:39;;;;;;;1.25;0.65;;;25.30;96.70;;;;;;5019975;28;20095;-80
2022/08/27 02:15:08;;;;;;;2.53;0.90;;;25.50;96.70;;;;;;5020227;28;20116;-81
2022/08/27 02:17:37;;;;;;;2.15;0.90;;;25.40;96.70;;;;;;5023250;28;20128;-79
2022/08/27 02:20:08;;;;;;;2.38;0.98;;;25.40;96.70;;;;;;5020779;28;20119;-81
2022/08/27 02:22:36;;;;;;;5.65;1.17;;;25.20;96.70;;;;;;5033293;28;20092;-79
2022/08/27 02:25:08;;;;;;;2.13;0.77;;;25.20;96.70;;;;;;5015662;28;20037;-80
2022/08/27 02:27:38;;;;;;;2.15;0.70;;;25.20;96.70;;;;;;5023883;28;20606;-80
2022/08/27 02:30:08;;;;;;;1.55;0.80;;;25.40;96.70;;;;;;5016755;28;20420;-79
2022/08/27 02:32:37;;;;;;;2.78;1.00;;;25.30;96.70;;;;;;5021146;28;20076;-80
2022/08/27 02:35:07;;;;;;;3.15;0.77;;;25.40;96.70;;;;;;5018900;28;20061;-80
2022/08/27 02:37:36;;;;;;;3.28;0.85;;;25.30;96.70;;;;;;5018853;28;20045;-79
2022/08/27 02:40:08;;;;;;;5.35;1.20;;;25.20;96.70;;;;;;5016676;28;20038;-79
2022/08/27 02:42:37;;;;;;;2.03;0.63;;;25.20;96.70;;;;;;5017329;28;20049;-79
2022/08/27 02:45:06;;;;;;;2.05;1.00;;;25.30;96.70;;;;;;5020982;28;20049;-79
2022/08/27 02:47:35;;;;;;;6.38;1.10;;;25.30;96.70;;;;;;5018024;28;20715;-81
2022/08/27 02:50:05;;;;;;;2.13;0.90;;;25.40;96.70;;;;;;5022817;28;20041;-80
2022/08/27 02:52:34;;;;;;;4.07;0.82;;;25.30;96.70;;;;;;5012795;28;20057;-79
2022/08/27 02:55:02;;;;;;;4.07;0.90;;;25.40;96.70;;;;;;5018953;28;20037;-79
2022/08/27 02:57:34;;;;;;;2.35;0.93;;;25.30;96.70;;;;;;5014146;28;20284;-81
2022/08/27 03:00:06;;;;;;;2.08;0.68;;;25.20;96.70;;;;;;5002737;28;20141;-80
2022/08/27 03:02:35;;;;;;;2.97;0.88;;;25.00;96.70;;;;;;5002151;28;20107;-80
2022/08/27 03:05:05;;;;;;;3.70;1.00;;;25.00;96.70;;;;;;5014722;28;20057;-80
2022/08/27 03:07:33;;;;;;;4.32;0.90;;;25.00;96.70;;;;;;5043673;28;20135;-81
2022/08/27 03:10:02;;;;;;;2.55;0.82;;;25.10;96.70;;;;;;5037811;28;20041;-80
2022/08/27 03:12:35;;;;;;;2.83;0.70;;;25.20;96.70;;;;;;5059024;28;20759;-80
2022/08/27 03:15:04;;;;;;;3.67;0.88;;;24.90;96.70;;;;;;5040192;28;20052;-80
2022/08/27 03:20:19;;;;;;;1.30;0.80;;;24.90;96.70;;;;;;5040939;28;20564;-80
2022/08/27 03:22:48;;;;;;;2.03;0.70;;;24.90;96.70;;;;;;5051061;28;20075;-80
2022/08/27 03:25:16;;;;;;;6.75;1.00;;;25.00;96.70;;;;;;5028398;28;20087;-81
2022/08/27 03:27:46;;;;;;;4.70;1.02;;;24.90;96.70;;;;;;5025550;28;20048;-80
2022/08/27 03:30:17;;;;;;;7.22;1.10;;;24.80;96.70;;;;;;5056097;28;20068;-80
2022/08/27 03:32:45;;;;;;;2.03;0.90;;;24.60;96.70;;;;;;5046729;28;20037;-80
2022/08/27 03:35:14;;;;;;;2.05;0.90;;;24.40;96.70;;;;;;5062126;28;20040;-79
2022/08/27 03:37:42;;;;;;;3.25;1.00;;;24.50;96.70;;;;;;5037127;28;20662;-80
2022/08/27 03:40:11;;;;;;;4.63;1.13;;;24.60;96.70;;;;;;5051752;28;20045;-80
2022/08/27 03:42:40;;;;;;;3.88;1.20;;;24.70;96.70;;;;;;5032415;28;20082;-81
2022/08/27 03:45:11;;;;;;;4.57;0.93;;;24.80;96.70;;;;;;5036754;28;20656;-80
2022/08/27 03:47:39;;;;;;;3.30;0.88;;;24.70;96.70;;;;;;5026951;28;20098;-82
2022/08/27 03:50:09;;;;;;;4.78;1.10;;;24.80;96.70;;;;;;5026865;28;20516;-80
2022/08/27 03:52:38;;;;;;;2.75;0.93;;;24.60;96.70;;;;;;5038342;28;20044;-82
2022/08/27 03:55:08;;;;;;;2.47;0.68;;;24.50;96.70;;;;;;5042472;28;20067;-80
2022/08/27 03:57:36;;;;;;;2.42;0.90;;;24.60;96.70;;;;;;5066909;28;20071;-79
2022/08/27 04:00:11;;;;;;;1.45;0.80;;;24.80;96.70;;;;;;5037861;28;20041;-80
2022/08/27 04:02:42;;;;;;;2.60;0.93;;;24.70;96.70;;;;;;5041678;28;20056;-79
2022/08/27 04:05:12;;;;;;;3.83;0.90;;;24.70;96.70;;;;;;5038729;28;20140;-81
2022/08/27 04:07:41;;;;;;;1.80;0.73;;;24.80;96.70;;;;;;5017094;28;20072;-79
2022/08/27 04:10:11;;;;;;;1.30;0.63;;;24.90;96.70;;;;;;5024188;28;20069;-79
2022/08/27 04:12:39;;;;;;;3.17;0.80;;;24.90;96.70;;;;;;5019451;28;20049;-80
2022/08/27 04:15:10;;;;;;;1.58;0.70;;;24.70;96.70;;;;;;5016166;28;20046;-80
2022/08/27 04:17:40;;;;;;;2.45;0.80;;;24.60;96.70;;;;;;5018666;28;20057;-80
2022/08/27 04:20:11;;;;;;;2.70;0.90;;;24.50;96.70;;;;;;5022413;28;20060;-80
2022/08/27 04:22:59;;;;;;;2.88;1.10;;;24.60;96.70;;;;;;5016991;28;20042;-79
2022/08/27 04:25:27;;;;;;;1.38;0.70;;;24.50;96.70;;;;;;5023938;28;20076;-80
2022/08/27 04:27:55;;;;;;;2.83;0.80;;;24.50;96.70;;;;;;5017598;28;20096;-80
2022/08/27 04:30:23;;;;;;;2.90;0.90;;;24.60;96.70;;;;;;5022286;28;20069;-80
2022/08/27 04:32:53;;;;;;;2.72;0.90;;;24.50;96.70;;;;;;5000154;28;20078;-80
2022/08/27 04:35:22;;;;;;;2.85;0.80;;;24.60;96.70;;;;;;5007287;28;20049;-79
2022/08/27 04:37:50;;;;;;;2.88;0.80;;;24.60;96.70;;;;;;5010686;28;20050;-80
2022/08/27 04:40:18;;;;;;;4.82;0.90;;;24.60;96.70;;;;;;5015857;28;20033;-79
2022/08/27 04:42:47;;;;;;;1.80;0.80;;;24.70;96.70;;;;;;5011639;28;20042;-80
2022/08/27 04:45:16;;;;;;;2.80;0.93;;;24.70;96.70;;;;;;5006772;28;20046;-80
2022/08/27 04:47:44;;;;;;;3.03;0.80;;;24.70;96.70;;;;;;5020353;28;20042;-80
2022/08/27 04:50:13;;;;;;;3.47;1.20;;;24.50;96.70;;;;;;5019443;28;20225;-81
2022/08/27 04:52:43;;;;;;;2.83;0.98;;;24.50;96.70;;;;;;5022251;28;20050;-80
2022/08/27 04:55:11;;;;;;;2.50;0.90;;;24.40;96.70;;;;;;5008882;28;20041;-79
2022/08/27 04:57:39;;;;;;;2.05;0.85;;;24.40;96.70;;;;;;5014599;28;20130;-79
2022/08/27 05:00:08;;;;;;;3.97;1.02;;;24.50;96.70;;;;;;5013886;28;20519;-80
2022/08/27 05:02:36;;;;;;;2.47;0.80;;;24.50;96.70;;;;;;5012716;28;20037;-79
2022/08/27 05:05:05;;;;;;;4.63;0.90;;;24.50;96.70;;;;;;5015361;28;20054;-80
2022/08/27 05:07:35;;;;;;;3.28;0.90;;;24.50;96.70;;;;;;5013548;28;20553;-79
2022/08/27 05:10:04;;;;;;;4.35;1.10;;;24.40;96.70;;;;;;5019913;28;20593;-80
2022/08/27 05:12:33;;;;;;;2.03;1.10;;;24.50;96.70;;;;;;5024036;28;20042;-80
2022/08/27 05:15:02;;;;;;;1.63;0.98;;;24.50;96.70;;;;;;5003074;28;20054;-80
2022/08/27 05:17:32;;;;;;;3.45;0.95;;;24.50;96.70;;;;;;5023761;28;20041;-80
2022/08/27 05:20:00;;;;;;;3.42;1.20;;;24.50;96.70;;;;;;5016976;28;20057;-79
2022/08/27 05:22:28;;;;;;;5.47;1.65;;;24.50;96.70;;;;;;5023104;28;20049;-80
2022/08/27 05:24:59;;;;;;;3.55;0.90;;;24.50;96.70;;;;;;5022900;28;20046;-80
2022/08/27 05:27:27;;;;;;;6.03;1.10;;;24.60;96.70;;;;;;5024356;28;20077;-80
2022/08/27 05:29:55;;;;;;;2.95;1.10;;;24.70;96.70;;;;;;5019249;28;20079;-80
2022/08/27 05:32:24;;;;;;;2.47;1.30;;;24.70;96.70;;;;;;5026582;28;20049;-79
2022/08/27 05:34:52;;;;;;;3.80;1.52;;;24.70;96.70;;;;;;5024671;28;20069;-80
2022/08/27 05:37:21;;;;;;;4.40;1.88;;;24.80;96.70;;;;;;5024232;28;20099;-81
2022/08/27 05:39:49;;;;;;;5.22;2.00;;;24.80;96.70;;;;;;5023704;28;20037;-80
2022/08/27 05:42:19;;;;;;;3.10;2.00;;;24.70;96.70;;;;;;5025046;28;20630;-77
2022/08/27 05:44:50;;;;;;;6.60;2.20;;;24.60;96.70;;;;;;5023167;28;20171;-76
2022/08/27 05:47:18;;;;;;;9.45;2.53;;;24.70;96.70;;;;;;5021227;28;20140;-78
2022/08/27 05:49:47;;;;;;;5.88;2.05;;;24.70;96.70;;;;;;5019739;28;20049;-78
2022/08/27 05:52:15;;;;;;;5.15;1.90;;;24.70;96.70;;;;;;5018041;28;20519;-80
2022/08/27 05:54:43;;;;;;;3.70;1.90;;;24.70;96.70;;;;;;5052997;28;20041;-77
2022/08/27 05:57:12;;;;;;;3.65;2.05;;;24.70;96.70;;;;;;5024136;28;20120;-76
2022/08/27 06:02:28;;;;;;;2.53;1.85;;;24.70;96.70;;;;;;5028476;28;20049;-77
2022/08/27 06:04:56;;;;;;;2.95;1.95;;;24.80;96.70;;;;;;5013097;28;20557;-77
2022/08/27 06:07:24;;;;;;;3.10;1.73;;;24.90;96.70;;;;;;5026634;28;20045;-77
2022/08/27 06:09:53;;;;;;;5.28;2.03;;;25.00;96.70;;;;;;5019727;28;20072;-76
2022/08/27 06:12:21;;;;;;;8.38;2.75;;;25.20;96.70;;;;;;5027293;28;20053;-79
2022/08/27 06:14:56;;;;;;;3.22;2.28;;;25.20;96.70;;;;;;4999312;28;20685;-79
2022/08/27 06:17:24;;;;;;;3.58;2.03;;;25.00;96.70;;;;;;5021386;28;20060;-79
2022/08/27 06:19:52;;;;;;;4.57;2.08;;;24.90;96.70;;;;;;5016603;28;20498;-79
2022/08/27 06:22:20;;;;;;;6.63;2.35;;;24.90;96.70;;;;;;5019959;28;20065;-79
2022/08/27 06:24:49;;;;;;;5.57;2.50;;;25.00;96.70;;;;;;5030230;28;20053;-80
2022/08/27 06:27:18;;;;;;;7.85;2.22;;;25.10;96.70;;;;;;5004417;28;20042;-78
2022/08/27 06:29:46;;;;;;;5.13;2.15;;;25.20;96.70;;;;;;5015644;28;20050;-79
2022/08/27 06:32:16;;;;;;;4.68;2.22;;;25.20;96.70;;;;;;5000125;28;20107;-79
2022/08/27 06:34:44;;;;;;;4.35;2.00;;;25.30;96.70;;;;;;5018391;28;20053;-78
2022/08/27 06:37:13;;;;;;;5.68;2.10;;;25.30;96.70;;;;;;5021906;28;20052;-79
2022/08/27 06:39:41;;;;;;;4.63;2.08;;;25.40;96.70;;;;;;5059424;28;20042;-81
2022/08/27 06:42:11;;;;;;;3.90;1.90;;;25.30;96.70;;;;;;5010351;28;20052;-78
2022/08/27 06:44:40;;;;;;;3.20;1.95;;;25.40;96.70;;;;;;5008273;28;20384;-79
2022/08/27 06:47:09;;;;;;;5.28;1.95;;;25.30;96.70;;;;;;5025783;28;20033;-79
2022/08/27 06:49:40;;;;;;;5.63;1.92;;;25.40;96.70;;;;;;5020763;28;20097;-79
2022/08/27 06:52:13;;;;;;;6.88;2.13;;;25.50;96.70;;;;;;5023126;28;20053;-79
2022/08/27 06:54:41;;;;;;;8.30;2.13;;;25.50;96.70;;;;;;5012595;28;20038;-79
2022/08/27 06:57:10;;;;;;;5.05;2.00;;;25.50;96.70;;;;;;5004452;28;20037;-79
2022/08/27 06:59:38;;;;;;;3.28;2.13;;;25.40;96.70;;;;;;5012287;28;20053;-79
2022/08/27 07:02:06;;;;;;;3.80;2.00;;;25.40;96.70;;;;;;5018870;28;20042;-78
2022/08/27 07:04:35;;;;;;;6.15;2.00;;;25.40;96.70;;;;;;5026297;28;20045;-79
2022/08/27 07:07:05;;;;;;;3.95;1.88;;;25.50;96.70;;;;;;5044246;28;20052;-78
2022/08/27 07:09:33;;;;;;;7.85;2.10;;;25.50;96.70;;;;;;5045907;28;20068;-79
2022/08/27 07:12:02;;;;;;;2.80;1.58;;;25.50;96.70;;;;;;5044512;28;20074;-80
2022/08/27 07:14:31;;;;;;;1.73;1.58;;;25.50;96.70;;;;;;5052236;28;20048;-79
2022/08/27 07:17:07;;;;;;;3.17;1.77;;;25.60;96.70;;;;;;5049176;28;20048;-79
2022/08/27 07:19:38;;;;;;;4.20;1.63;;;25.60;96.70;;;;;;5039269;28;20049;-80
2022/08/27 07:22:09;;;;;;;6.40;2.08;;;25.60;96.70;;;;;;5045237;28;20143;-79
2022/08/27 07:24:38;;;;;;;4.68;1.80;;;25.60;96.70;;;;;;5053054;28;20570;-78
2022/08/27 07:27:06;;;;;;;3.47;1.80;;;25.70;96.70;;;;;;5036858;28;20049;-78
2022/08/27 07:29:35;;;;;;;3.20;1.90;;;25.70;96.70;;;;;;5059513;28;20119;-78
2022/08/27 07:32:03;;;;;;;3.38;1.83;;;25.70;96.70;;;;;;5050757;28;20124;-80
2022/08/27 07:34:32;;;;;;;4.65;1.92;;;25.80;96.70;;;;;;5042393;28;20036;-79
2022/08/27 07:37:00;;;;;;;2.28;1.20;;;25.90;96.70;;;;;;5040626;28;20124;-79
2022/08/27 07:39:29;;;;;;;2.40;1.60;;;26.00;96.70;;;;;;5041734;28;20049;-79
2022/08/27 07:44:44;;;;;;;4.03;1.55;;;26.20;96.70;;;;;;5044090;28;20052;-79
2022/08/27 07:47:12;;;;;;;4.60;1.63;;;26.20;96.70;;;;;;5050125;28;20041;-78
2022/08/27 07:49:41;;;;;;;3.90;1.40;;;26.40;96.70;;;;;;5043170;28;20052;-79
2022/08/27 07:52:09;;;;;;;2.83;2.03;;;26.40;96.70;;;;;;5040480;28;20123;-79
2022/08/27 07:54:40;;;;;;;2.53;1.50;;;26.40;96.70;;;;;;5029591;28;20696;-78
2022/08/27 07:57:08;;;;;;;4.18;1.80;;;26.40;96.70;;;;;;5052669;28;20036;-78
2022/08/27 07:59:37;;;;;;;4.30;1.85;;;26.60;96.70;;;;;;5052594;28;20074;-79
2022/08/27 08:02:05;;;;;;;5.05;2.28;;;26.70;96.70;;;;;;5068719;28;20051;-80
2022/08/27 08:04:34;;;;;;;5.07;2.42;;;26.80;96.70;;;;;;5061262;28;20119;-79
2022/08/27 08:07:02;;;;;;;4.47;2.40;;;26.70;96.70;;;;;;5039979;28;20136;-76
2022/08/27 08:09:31;;;;;;;6.20;2.50;;;26.70;96.70;;;;;;5041750;28;20040;-80
2022/08/27 08:12:01;;;;;;;3.50;1.75;;;26.80;96.70;;;;;;5036479;28;20056;-78
2022/08/27 08:14:30;;;;;;;5.72;2.22;;;26.90;96.70;;;;;;5049298;28;20133;-79
2022/08/27 08:17:00;;;;;;;5.63;2.05;;;26.90;96.70;;;;;;5025989;28;20045;-79
2022/08/27 08:19:29;;;;;;;3.92;2.00;;;26.90;96.70;;;;;;5044740;28;20527;-79
2022/08/27 08:21:59;;;;;;;4.82;2.22;;;26.90;96.70;;;;;;5055046;28;20049;-79
2022/08/27 08:24:33;;;;;;;3.85;2.10;;;27.00;96.70;;;;;;5044410;28;20053;-80
2022/08/27 08:27:02;;;;;;;3.28;2.00;;;27.00;96.70;;;;;;5037332;28;20041;-79
2022/08/27 08:29:35;;;;;;;4.30;2.13;;;27.10;96.70;;;;;;5038811;28;20041;-79
2022/08/27 08:32:04;;;;;;;3.67;2.10;;;27.10;96.70;;;;;;5028108;28;20099;-79
2022/08/27 08:34:34;;;;;;;3.75;2.10;;;27.20;96.70;;;;;;5050632;28;20340;-78
2022/08/27 08:37:04;;;;;;;5.50;2.28;;;27.40;96.70;;;;;;5036352;28;20592;-79
2022/08/27 08:39:33;;;;;;;3.22;2.10;;;27.50;96.70;;;;;;5046845;28;20360;-78
2022/08/27 08:42:06;;;;;;;3.70;2.00;;;27.50;96.70;;;;;;5059911;28;20698;-79
2022/08/27 08:44:39;;;;;;;4.05;2.08;;;27.60;96.70;;;;;;5051187;28;20127;-79
2022/08/27 08:47:13;;;;;;;2.58;2.30;;;27.60;96.70;;;;;;5044673;28;20086;-79
2022/08/27 08:49:48;;;;;;;2.95;2.05;;;27.60;96.70;;;;;;5055980;28;20145;-80
2022/08/27 08:52:28;;;;;;;3.50;2.00;;;27.70;96.70;;;;;;5042104;28;20567;-79
2022/08/27 08:55:10;;;;;;;3.80;2.45;;;27.70;96.70;;;;;;5038799;28;20080;-78
2022/08/27 08:57:47;;;;;;;2.50;2.00;;;27.80;96.70;;;;;;5038493;28;20049;-78
2022/08/27 09:00:16;;;;;;;1.67;1.58;;;27.80;96.70;;;;;;5043688;28;20143;-78
2022/08/27 09:02:52;;;;;;;2.80;2.10;;;27.90;96.70;;;;;;5058741;28;20120;-78
2022/08/27 09:05:20;;;;;;;;;;;28.00;96.70;;;;;;5055922;28;20061;-80
2022/08/27 09:08:04;;;;;;;3.40;1.60;;;28.10;96.70;;;;;;5016799;28;20390;-78
2022/08/27 09:11:03;;;;;;;2.75;1.75;;;28.20;96.70;;;;;;5042323;28;20087;-78
2022/08/27 09:13:37;;;;;;;3.15;1.67;;;28.30;96.70;;;;;;5038823;28;20041;-78
2022/08/27 09:16:06;;;;;;;5.18;1.95;;;28.30;96.70;;;;;;5044468;28;20142;-78
2022/08/27 09:18:38;;;;;;;3.20;1.80;;;28.30;96.70;;;;;;5041593;28;20493;-79
2022/08/27 09:21:19;;;;;;;2.83;1.55;;;28.30;96.70;;;;;;5059504;28;20102;-78
2022/08/27 09:24:06;;;;;;;;;;;28.40;96.70;;;;;;5053345;28;20494;-79
2022/08/27 09:26:37;;;;;;;2.35;1.70;;;28.40;96.70;;;;;;5046786;28;19924;-79
2022/08/27 09:29:20;;;;;;;2.15;1.40;;;28.40;96.70;;;;;;5047602;28;20056;-79
2022/08/27 09:31:57;;;;;;;1.85;1.55;;;28.30;96.70;;;;;;5038426;28;20506;-78
2022/08/27 09:34:27;;;;;;;2.90;1.15;;;28.40;96.70;;;;;;5056284;28;20482;-79
2022/08/27 09:37:01;;;;;;;3.05;1.67;;;28.40;96.70;;;;;;5049018;28;20078;-78
2022/08/27 09:39:34;;;;;;;4.05;1.70;;;28.50;96.70;;;;;;5058493;28;20102;-80
2022/08/27 09:42:03;;;;;;;2.08;1.38;;;28.60;96.70;;;;;;5048316;28;20037;-79
2022/08/27 09:44:45;;;;;;;2.92;1.80;;;28.60;96.70;;;;;;5063995;28;20045;-79
2022/08/27 09:47:27;;;;;;;3.67;1.45;;;28.50;96.70;;;;;;5000370;28;20151;-79
2022/08/27 09:50:04;;;;;;;2.40;1.70;;;28.60;96.70;;;;;;4971336;28;20052;-80
2022/08/27 09:52:36;;;;;;;2.47;1.50;;;28.70;96.70;;;;;;4978617;28;20602;-79
2022/08/27 09:55:05;;;;;;;2.40;1.45;;;28.80;96.70;;;;;;4994737;28;20124;-78
2022/08/27 09:57:38;;;;;;;2.60;1.73;;;29.10;96.70;;;;;;4983620;28;20133;-80
2022/08/27 10:00:14;;;;;;;4.47;1.92;;;29.30;96.70;;;;;;4992930;28;20077;-78
2022/08/27 10:02:50;;;;;;;1.50;1.40;;;29.40;96.70;;;;;;5000239;28;20057;-79
2022/08/27 10:05:26;;;;;;;2.45;1.52;;;29.50;96.70;;;;;;4982941;28;20532;-79
2022/08/27 10:07:56;;;;;;;;;;;29.50;96.70;;;;;;4968086;28;20046;-79
2022/08/27 10:10:37;;;;;;;3.42;1.38;;;29.60;96.70;;;;;;4993371;28;20374;-78
2022/08/27 10:13:13;;;;;;;2.63;1.50;;;29.60;96.70;;;;;;4976772;28;20061;-78
2022/08/27 10:15:53;;;;;;;3.67;1.50;;;29.60;96.70;;;;;;4980116;28;20136;-79
2022/08/27 10:18:30;;;;;;;1.75;1.60;;;29.60;96.70;;;;;;4979832;28;20054;-79
2022/08/27 10:21:06;;;;;;;4.80;1.80;;;29.70;96.70;;;;;;4980776;28;20065;-79
2022/08/27 10:23:44;;;;;;;1.70;1.55;;;29.80;96.70;;;;;;5014617;28;20501;-79
2022/08/27 10:26:18;;;;;;;2.60;1.42;;;29.80;96.70;;;;;;5043723;28;21094;-78
2022/08/27 10:29:01;;;;;;;2.67;2.03;;;29.90;96.70;;;;;;5056738;28;20068;-78
2022/08/27 10:31:39;;;;;;;3.35;1.70;;;29.90;96.70;;;;;;5041696;28;20045;-78
2022/08/27 10:34:19;;;;;;;2.92;1.30;;;30.00;96.70;;;;;;5019471;28;20572;-80
2022/08/27 10:37:00;;;;;;;3.35;1.50;;;30.20;96.70;;;;;;5039800;28;20114;-79
2022/08/27 10:39:49;;;;;;;1.75;1.45;;;30.30;96.70;;;;;;5048399;28;20118;-79
2022/08/27 10:42:25;;;;;;;2.10;1.48;;;30.50;96.70;;;;;;5056048;28;20517;-79
2022/08/27 10:45:09;;;;;;;2.85;1.65;;;30.60;96.70;;;;;;5054796;28;20040;-79
2022/08/27 10:48:08;;;;;;;2.53;1.35;;;30.70;96.70;;;;;;5054536;28;20126;-79
2022/08/27 10:50:43;;;;;;;2.83;1.67;;;30.80;96.70;;;;;;5042506;28;20067;-79
2022/08/27 10:53:25;;;;;;;3.70;1.80;;;30.90;96.70;;;;;;5022793;28;20049;-79
2022/08/27 10:56:05;;;;;;;3.40;1.70;;;31.10;96.70;;;;;;5032352;28;20445;-78
2022/08/27 10:58:44;;;;;;;5.07;1.83;;;31.10;96.70;;;;;;5038276;28;20053;-78
2022/08/27 11:01:19;;;;;;;3.63;1.60;;;31.20;96.70;;;;;;5069050;28;20167;-79
2022/08/27 11:03:53;;;;;;;4.65;1.60;;;31.30;96.70;;;;;;5054440;28;20053;-78
2022/08/27 11:06:26;;;;;;;3.88;1.45;;;31.50;96.70;;;;;;5023232;28;20060;-78
2022/08/27 11:08:59;;;;;;;1.90;1.45;;;31.50;96.70;;;;;;5062983;28;20044;-78
2022/08/27 11:11:42;;;;;;;3.15;1.45;;;31.50;96.70;;;;;;5030493;28;20060;-78
2022/08/27 11:14:36;;;;;;;3.40;1.70;;;31.70;96.70;;;;;;5023631;28;20613;-79
2022/08/27 11:17:08;;;;;;;2.67;1.50;;;31.80;96.70;;;;;;5055701;28;20206;-78
2022/08/27 11:19:48;;;;;;;1.52;1.35;;;32.00;96.70;;;;;;5056006;28;20563;-78
2022/08/27 11:22:28;;;;;;;1.95;1.42;;;32.10;96.70;;;;;;5049346;28;20053;-77
2022/08/27 11:25:01;;;;;;;4.13;1.48;;;32.30;96.70;;;;;;5056483;28;20043;-78
2022/08/27 11:27:32;;;;;;;1.52;1.10;;;32.40;96.70;;;;;;5041107;28;20056;-78
2022/08/27 11:30:06;;;;;;;2.45;1.45;;;32.40;96.70;;;;;;5043341;28;20053;-78
2022/08/27 11:32:46;;;;;;;1.92;1.35;;;32.40;96.70;;;;;;5027185;28;20482;-79
2022/08/27 11:35:21;;;;;;;1.98;1.10;;;32.50;96.70;;;;;;5055016;28;20044;-78
2022/08/27 11:38:18;;;;;;;1.15;0.98;;;32.60;96.70;;;;;;5055315;28;20094;-78
2022/08/27 11:41:11;;;;;;;3.47;1.20;;;32.70;96.70;;;;;;5053542;28;20713;-78
2022/08/27 11:43:41;;;;;;;2.65;1.40;;;32.70;96.70;;;;;;5039309;28;20625;-78
2022/08/27 11:46:10;;;;;;;2.20;1.38;;;32.90;96.70;;;;;;5043416;28;20445;-77
2022/08/27 11:48:41;;;;;;;1.63;1.35;;;33.00;96.70;;;;;;5056790;28;20040;-78
2022/08/27 11:51:13;;;;;;;2.05;1.17;;;33.00;96.70;;;;;;5033402;28;20085;-78
2022/08/27 11:53:55;;;;;;;1.75;1.30;;;33.00;96.70;;;;;;5054986;28;20059;-78
2022/08/27 11:56:40;;;;;;;4.57;1.27;;;33.00;96.70;;;;;;5048082;28;20051;-77
2022/08/27 11:59:11;;;;;;;1.35;1.13;;;33.00;96.70;;;;;;5040540;28;20357;-78
2022/08/27 12:01:39;;;;;;;1.60;1.30;;;33.10;96.70;;;;;;5043692;28;20052;-79
2022/08/27 12:04:23;;;;;;;1.92;1.20;;;33.20;96.70;;;;;;5041742;28;20033;-78
2022/08/27 12:07:02;;;;;;;2.80;1.00;;;33.30;96.70;;;;;;5052495;28;20113;-78
2022/08/27 12:09:50;;;;;;;3.65;1.27;;;33.50;96.70;;;;;;5039629;28;20040;-78
2022/08/27 12:12:24;;;;;;;2.10;1.30;;;33.60;96.70;;;;;;5054022;28;20106;-78
2022/08/27 12:14:59;;;;;;;3.50;1.40;;;33.50;96.70;;;;;;5039229;28;20068;-79
2022/08/27 12:17:36;;;;;;;3.17;1.20;;;33.50;96.70;;;;;;5039164;28;20469;-78
2022/08/27 12:20:17;;;;;;;2.53;1.30;;;33.60;96.70;;;;;;5051188;28;20044;-78
2022/08/27 12:25:56;;;;;;;1.30;1.20;;;33.80;96.70;;;;;;5046269;28;20055;-78
2022/08/27 12:28:25;;;;;;;3.20;1.20;;;33.90;96.70;;;;;;5056986;28;20120;-78
2022/08/27 12:30:55;;;;;;;1.27;1.00;;;33.90;95.80;;;;;;5045875;28;20523;-78
2022/08/27 12:33:30;;;;;;;1.48;1.38;;;34.00;95.40;;;;;;5056857;28;20133;-78
2022/08/27 12:36:08;;;;;;;2.40;1.20;;;33.90;96.70;;;;;;5045281;28;20082;-78
2022/08/27 12:38:46;;;;;;;1.42;1.00;;;34.00;96.70;;;;;;5047825;28;20504;-78
2022/08/27 12:41:25;;;;;;;1.95;1.42;;;33.70;96.70;;;;;;5058395;28;20178;-78
2022/08/27 12:44:04;;;;;;;3.38;1.42;;;33.60;96.70;;;;;;5075740;28;20099;-78
2022/08/27 12:46:35;;;;;;;4.03;1.35;;;33.50;96.70;;;;;;5043137;28;20059;-78
2022/08/27 12:49:05;;;;;;;3.97;1.90;;;33.40;96.70;;;;;;5054969;28;20049;-78
2022/08/27 12:51:54;;;;;;;3.17;1.42;;;33.10;96.70;;;;;;5045741;28;20078;-79
2022/08/27 12:54:37;;;;;;;5.10;1.80;;;32.90;96.70;;;;;;5070544;28;20114;-78
2022/08/27 12:57:14;;;;;;;1.92;1.33;;;33.10;96.70;;;;;;5041434;28;20164;-80
2022/08/27 13:00:03;;;;;;;5.00;1.85;;;33.40;96.70;;;;;;5026278;28;20067;-79
2022/08/27 13:02:54;;;;;;;3.15;1.58;;;33.80;96.70;;;;;;5057469;28;20792;-73
2022/08/27 13:05:24;;;;;;;6.07;1.40;;;33.90;96.70;;;;;;5058444;28;20052;-78
2022/08/27 13:07:54;;;;;;;2.33;1.52;;;33.90;96.70;;;;;;5042929;28;20466;-77
2022/08/27 13:10:28;;;;;;;3.92;1.83;;;33.90;96.70;;;;;;5046376;28;20048;-77
2022/08/27 13:13:04;;;;;;;2.75;1.40;;;33.80;96.70;;;;;;5052591;28;20056;-77
2022/08/27 13:15:33;;;;;;;2.10;1.38;;;33.90;96.70;;;;;;5059419;28;20040;-77
2022/08/27 13:18:06;;;;;;;2.33;1.33;;;33.90;96.70;;;;;;5037830;28;20152;-78
2022/08/27 13:20:38;;;;;;;3.20;1.40;;;34.00;96.70;;;;;;5057731;28;20129;-78
2022/08/27 13:23:13;;;;;;;1.95;1.30;;;34.00;96.70;;;;;;5039969;28;20739;-78
2022/08/27 13:25:58;;;;;;;2.75;1.27;;;33.90;96.70;;;;;;5027835;28;20044;-78